Time,TemperatureF,DewpointF,PressureIn,WindDirection,WindDirectionDegrees,WindSpeedMPH,WindSpeedGustMPH,Humidity,HourlyPrecipIn,Conditions,Clouds,dailyrainin,SolarRadiationWatts/m^2,SoftwareType,DateUTC
2013-01-10 00:00:00,39.0,32.6,29.91,East,79,4.5,4.5,78,0.00,,---,0.00,0.15,VWS V14.01,2013-01-10 08:00:00,
2013-01-10 00:05:00,38.8,32.7,29.91,ENE,72,6.5,6.5,78,0.00,,---,0.00,1.37,VWS V14.01,2013-01-10 08:05:00,
2013-01-10 00:10:00,38.7,32.8,29.91,ESE,105,6.0,6.0,79,0.00,,---,0.00,1.60,VWS V14.01,2013-01-10 08:10:00,
2013-01-10 00:15:00,38.5,32.7,29.91,East,89,4.3,4.3,80,0.00,,---,0.00,3.21,VWS V14.01,2013-01-10 08:15:00,
2013-01-10 00:20:00,38.5,32.8,29.91,East,85,4.5,4.7,80,0.00,,---,0.00,0.84,VWS V14.01,2013-01-10 08:20:00,
2013-01-10 00:25:00,38.3,32.6,29.91,ENE,65,3.8,3.8,80,0.00,,---,0.00,0.00,VWS V14.01,2013-01-10 08:25:00,
2013-01-10 00:30:00,38.5,32.7,29.91,ENE,73,6.9,8.1,80,0.00,,---,0.00,0.00,VWS V14.01,2013-01-10 08:30:00,
2013-01-10 00:35:00,38.3,32.7,29.91,East,84,5.1,5.8,80,0.00,,---,0.00,1.53,VWS V14.01,2013-01-10 08:35:00,
2013-01-10 00:40:00,38.3,32.7,29.91,East,95,6.7,6.7,80,0.00,,---,0.00,0.00,VWS V14.01,2013-01-10 08:40:00,
2013-01-10 00:45:00,38.3,32.7,29.91,ESE,102,7.6,7.6,80,0.00,,---,0.00,1.76,VWS V14.01,2013-01-10 08:45:00,
2013-01-10 00:50:00,38.3,32.7,29.91,ESE,106,3.8,3.8,80,0.00,,---,0.00,0.53,VWS V14.01,2013-01-10 08:50:00,
2013-01-10 00:55:00,38.3,32.8,29.91,ESE,118,5.6,5.6,80,0.00,,---,0.00,4.50,VWS V14.01,2013-01-10 08:55:00,
2013-01-10 01:00:00,38.1,32.8,29.91,East,86,7.2,7.2,81,0.00,,---,0.00,0.00,VWS V14.01,2013-01-10 09:00:00,
2013-01-10 01:05:00,38.3,33.0,29.91,East,89,6.5,8.1,81,0.00,,---,0.00,4.20,VWS V14.01,2013-01-10 09:05:00,
2013-01-10 01:10:00,38.1,32.9,29.91,East,101,5.1,5.1,81,0.00,,---,0.00,0.00,VWS V14.01,2013-01-10 09:10:00,
2013-01-10 01:15:00,38.1,33.0,29.92,ESE,118,7.8,7.8,82,0.00,,---,0.00,0.00,VWS V14.01,2013-01-10 09:15:00,
2013-01-10 01:20:00,37.9,32.9,29.92,East,99,6.7,6.7,82,0.00,,---,0.00,0.00,VWS V14.01,2013-01-10 09:20:00,
2013-01-10 01:25:00,37.9,32.8,29.92,East,96,5.1,5.4,82,0.00,,---,0.00,1.53,VWS V14.01,2013-01-10 09:25:00,
2013-01-10 01:30:00,37.8,32.6,29.92,ESE,108,4.7,5.4,82,0.00,,---,0.00,0.00,VWS V14.01,2013-01-10 09:30:00,
2013-01-10 01:35:00,37.9,32.8,29.92,ENE,72,7.2,7.2,82,0.00,,---,0.00,4.66,VWS V14.01,2013-01-10 09:35:00,
2013-01-10 01:40:00,37.8,32.6,29.92,East,98,4.0,4.0,82,0.00,,---,0.00,0.00,VWS V14.01,2013-01-10 09:40:00,
2013-01-10 01:45:00,37.8,32.6,29.92,ESE,102,5.4,5.4,81,0.00,,---,0.00,0.00,VWS V14.01,2013-01-10 09:45:00,
2013-01-10 01:50:00,37.6,32.4,29.93,ESE,115,7.4,7.4,81,0.00,,---,0.00,0.00,VWS V14.01,2013-01-10 09:50:00,
2013-01-10 01:55:00,37.6,32.4,29.93,East,93,4.7,5.6,82,0.00,,---,0.00,0.08,VWS V14.01,2013-01-10 09:55:00,
2013-01-10 02:00:00,37.6,32.4,29.93,East,97,6.7,7.8,82,0.00,,---,0.00,0.00,VWS V14.01,2013-01-10 10:00:00,
2013-01-10 02:05:00,37.4,32.4,29.93,East,85,5.1,5.1,82,0.00,,---,0.00,0.00,VWS V14.01,2013-01-10 10:05:00,
2013-01-10 02:10:00,37.4,32.5,29.93,ESE,113,4.7,4.7,82,0.00,,---,0.00,3.28,VWS V14.01,2013-01-10 10:10:00,
2013-01-10 02:15:00,37.4,32.6,29.93,East,101,5.8,5.8,82,0.00,,---,0.00,0.00,VWS V14.01,2013-01-10 10:15:00,
2013-01-10 02:20:00,37.0,32.3,29.93,East,86,2.5,7.2,83,0.00,,---,0.00,1.37,VWS V14.01,2013-01-10 10:20:00,
2013-01-10 02:25:00,37.0,32.3,29.94,ESE,114,2.0,5.4,83,0.00,,---,0.00,0.00,VWS V14.01,2013-01-10 10:25:00,
2013-01-10 02:30:00,36.9,32.3,29.94,ENE,78,4.7,4.7,83,0.00,,---,0.00,0.00,VWS V14.01,2013-01-10 10:30:00,
2013-01-10 02:35:00,36.9,32.3,29.94,East,97,4.0,4.3,84,0.00,,---,0.00,0.00,VWS V14.01,2013-01-10 10:35:00,
2013-01-10 02:40:00,37.0,32.6,29.94,East,81,3.8,3.8,84,0.00,,---,0.00,4.20,VWS V14.01,2013-01-10 10:40:00,
2013-01-10 02:45:00,36.7,32.2,29.94,SE,139,2.5,2.5,84,0.00,,---,0.00,0.00,VWS V14.01,2013-01-10 10:45:00,
2013-01-10 02:50:00,36.9,32.4,29.94,East,97,4.9,4.9,84,0.00,,---,0.00,0.00,VWS V14.01,2013-01-10 10:50:00,
2013-01-10 02:55:00,36.7,32.2,29.94,East,98,5.8,5.8,84,0.00,,---,0.00,1.76,VWS V14.01,2013-01-10 10:55:00,
2013-01-10 03:00:00,36.7,32.2,29.94,ESE,116,4.0,4.0,84,0.00,,---,0.26,1.91,VWS V14.01,2013-01-10 11:00:00,
2013-01-10 03:05:00,36.7,32.2,29.95,East,100,3.1,3.6,84,0.00,,---,0.00,0.00,VWS V14.01,2013-01-10 11:05:00,
2013-01-10 03:10:00,36.7,32.2,29.95,East,87,1.6,1.6,84,0.00,,---,0.00,0.15,VWS V14.01,2013-01-10 11:10:00,
2013-01-10 03:15:00,36.7,32.1,29.95,ENE,61,2.5,2.5,83,0.00,,---,0.00,0.00,VWS V14.01,2013-01-10 11:15:00,
2013-01-10 03:20:00,36.7,32.0,29.95,NNW,347,4.0,4.0,83,0.00,,---,0.00,0.00,VWS V14.01,2013-01-10 11:20:00,
2013-01-10 03:25:00,36.9,32.1,29.95,ENE,66,0.9,0.9,83,0.00,,---,0.00,0.00,VWS V14.01,2013-01-10 11:25:00,
2013-01-10 03:30:00,36.9,32.0,29.95,East,86,1.3,1.6,82,0.00,,---,0.00,0.00,VWS V14.01,2013-01-10 11:30:00,
2013-01-10 03:35:00,37.0,32.2,29.95,East,87,2.0,2.0,82,0.00,,---,0.00,1.98,VWS V14.01,2013-01-10 11:35:00,
2013-01-10 03:40:00,37.2,32.2,29.95,East,91,2.0,2.0,82,0.00,,---,0.00,4.66,VWS V14.01,2013-01-10 11:40:00,
2013-01-10 03:45:00,37.2,31.9,29.95,East,90,4.0,6.0,81,0.00,,---,0.00,0.00,VWS V14.01,2013-01-10 11:45:00,
2013-01-10 03:50:00,37.4,32.2,29.95,East,82,6.3,6.3,81,0.00,,---,0.00,2.67,VWS V14.01,2013-01-10 11:50:00,
2013-01-10 03:55:00,37.4,32.0,29.95,East,97,5.6,7.4,81,0.00,,---,0.00,2.06,VWS V14.01,2013-01-10 11:55:00,
2013-01-10 04:00:00,37.4,32.1,29.95,ESE,118,5.6,5.6,81,0.00,,---,0.00,0.00,VWS V14.01,2013-01-10 12:00:00,
2013-01-10 04:05:00,37.4,32.4,29.95,ESE,102,4.3,6.5,82,0.00,,---,0.00,4.66,VWS V14.01,2013-01-10 12:05:00,
2013-01-10 04:10:00,37.2,32.4,29.95,East,83,8.5,8.5,82,0.00,,---,0.00,0.00,VWS V14.01,2013-01-10 12:10:00,
2013-01-10 04:15:00,36.9,32.2,29.95,East,86,8.7,8.7,83,0.00,,---,0.00,0.84,VWS V14.01,2013-01-10 12:15:00,
2013-01-10 04:20:00,36.7,32.1,29.95,East,99,6.7,6.7,83,0.00,,---,0.00,0.00,VWS V14.01,2013-01-10 12:20:00,
2013-01-10 04:25:00,36.7,32.2,29.95,ENE,77,2.2,5.4,84,0.00,,---,0.00,3.97,VWS V14.01,2013-01-10 12:25:00,
2013-01-10 04:30:00,36.5,32.0,29.95,ESE,104,4.0,5.1,83,0.00,,---,0.00,0.00,VWS V14.01,2013-01-10 12:30:00,
2013-01-10 04:35:00,36.5,32.0,29.95,East,81,6.3,6.3,84,0.00,,---,0.00,0.00,VWS V14.01,2013-01-10 12:35:00,
2013-01-10 04:40:00,36.3,31.8,29.95,ESE,104,4.0,4.3,84,0.00,,---,0.00,0.00,VWS V14.01,2013-01-10 12:40:00,
2013-01-10 04:45:00,36.5,32.0,29.95,ESE,112,3.8,3.8,84,0.00,,---,0.00,0.00,VWS V14.01,2013-01-10 12:45:00,
2013-01-10 04:50:00,36.5,32.0,29.95,ENE,78,3.8,3.8,84,0.00,,---,0.00,1.53,VWS V14.01,2013-01-10 12:50:00,
2013-01-10 04:55:00,36.7,32.1,29.96,East,82,4.9,4.9,83,0.00,,---,0.00,0.00,VWS V14.01,2013-01-10 12:55:00,
2013-01-10 05:00:00,36.5,32.0,29.96,East,81,3.4,4.0,84,0.00,,---,0.00,0.00,VWS V14.01,2013-01-10 13:00:00,
2013-01-10 05:05:00,36.3,31.9,29.96,East,92,4.3,4.9,84,0.00,,---,0.00,0.00,VWS V14.01,2013-01-10 13:05:00,
2013-01-10 05:10:00,36.3,32.0,29.96,East,94,2.9,4.9,84,0.00,,---,0.00,0.00,VWS V14.01,2013-01-10 13:10:00,
2013-01-10 05:15:00,36.3,32.0,29.96,East,81,4.3,5.6,84,0.00,,---,0.00,0.99,VWS V14.01,2013-01-10 13:15:00,
2013-01-10 05:20:00,36.3,31.9,29.96,ENE,63,3.6,3.6,84,0.00,,---,0.00,0.61,VWS V14.01,2013-01-10 13:20:00,
2013-01-10 05:25:00,36.3,32.0,29.96,ENE,74,3.6,6.5,84,0.00,,---,0.00,0.61,VWS V14.01,2013-01-10 13:25:00,
2013-01-10 05:29:00,36.5,32.2,29.96,ESE,102,2.9,2.9,84,0.00,,---,0.00,0.00,VWS V14.01,2013-01-10 13:29:00,
2013-01-10 05:34:00,36.3,31.9,29.96,East,81,3.8,5.4,84,0.00,,---,0.00,0.00,VWS V14.01,2013-01-10 13:34:00,
2013-01-10 05:39:00,36.3,32.0,29.96,East,82,3.6,3.6,84,0.00,,---,0.00,0.00,VWS V14.01,2013-01-10 13:39:00,
2013-01-10 05:44:00,36.5,32.2,29.96,East,99,2.9,4.0,84,0.00,,---,0.00,1.91,VWS V14.01,2013-01-10 13:44:00,
2013-01-10 05:49:00,36.3,31.9,29.97,ESE,105,5.8,5.8,84,0.00,,---,0.00,3.97,VWS V14.01,2013-01-10 13:49:00,
2013-01-10 05:54:00,36.5,32.2,29.97,East,101,2.0,4.0,84,0.00,,---,0.00,0.00,VWS V14.01,2013-01-10 13:54:00,
2013-01-10 05:59:00,36.7,32.4,29.97,ESE,102,3.8,4.0,84,0.00,,---,0.00,1.30,VWS V14.01,2013-01-10 13:59:00,
2013-01-10 06:04:00,36.3,32.0,29.98,ESE,110,4.0,4.0,84,0.00,,---,0.00,0.00,VWS V14.01,2013-01-10 14:04:00,
2013-01-10 06:09:00,36.3,32.0,29.98,East,98,2.5,2.5,84,0.00,,---,0.00,0.00,VWS V14.01,2013-01-10 14:09:00,
2013-01-10 06:14:00,36.1,31.8,29.98,ESE,112,4.7,4.7,84,0.00,,---,0.00,1.83,VWS V14.01,2013-01-10 14:14:00,
2013-01-10 06:19:00,36.3,32.0,29.98,East,95,3.6,3.6,84,0.00,,---,0.00,0.00,VWS V14.01,2013-01-10 14:19:00,
2013-01-10 06:24:00,36.3,32.0,29.98,NE,55,3.8,3.8,84,0.00,,---,0.00,0.00,VWS V14.01,2013-01-10 14:24:00,
2013-01-10 06:29:00,36.1,31.7,29.98,East,81,4.0,5.1,84,0.00,,---,0.00,3.13,VWS V14.01,2013-01-10 14:29:00,
2013-01-10 06:34:00,36.1,31.5,29.98,East,79,4.3,4.9,83,0.00,,---,0.00,2.21,VWS V14.01,2013-01-10 14:34:00,
2013-01-10 06:39:00,36.1,31.4,29.99,East,96,3.4,3.6,83,0.00,,---,0.00,0.00,VWS V14.01,2013-01-10 14:39:00,
2013-01-10 06:44:00,36.1,31.0,29.99,East,84,4.5,4.5,82,0.00,,---,0.00,0.00,VWS V14.01,2013-01-10 14:44:00,
2013-01-10 06:49:00,36.1,30.8,29.99,NE,51,4.9,4.9,81,0.00,,---,0.00,0.00,VWS V14.01,2013-01-10 14:49:00,
2013-01-10 06:54:00,36.1,30.8,29.99,North,1,1.8,2.0,81,0.00,,---,0.00,0.00,VWS V14.01,2013-01-10 14:54:00,
2013-01-10 06:59:00,36.3,31.0,30.00,ENE,75,5.6,5.6,81,0.00,,---,0.00,1.91,VWS V14.01,2013-01-10 14:59:00,
2013-01-10 07:04:00,36.1,30.8,30.00,ESE,113,2.0,2.2,81,0.00,,---,0.00,0.00,VWS V14.01,2013-01-10 15:04:00,
2013-01-10 07:09:00,36.3,31.1,30.00,East,97,4.5,4.5,81,0.00,,---,0.00,3.28,VWS V14.01,2013-01-10 15:09:00,
2013-01-10 07:14:00,36.3,31.1,30.00,ENE,76,6.0,6.0,81,0.00,,---,0.00,0.00,VWS V14.01,2013-01-10 15:14:00,
2013-01-10 07:19:00,36.1,31.0,30.00,East,83,3.8,3.8,81,0.00,,---,0.00,4.04,VWS V14.01,2013-01-10 15:19:00,
2013-01-10 07:24:00,36.1,31.0,30.00,ENE,68,5.8,5.8,81,0.00,,---,0.00,1.22,VWS V14.01,2013-01-10 15:24:00,
2013-01-10 07:29:00,36.0,30.9,30.01,East,84,4.9,4.9,82,0.00,,---,0.00,4.20,VWS V14.01,2013-01-10 15:29:00,
2013-01-10 07:34:00,36.0,31.0,30.01,East,79,2.0,2.5,82,0.00,,---,0.00,1.91,VWS V14.01,2013-01-10 15:34:00,
2013-01-10 07:39:00,35.8,30.8,30.01,East,96,2.9,2.9,82,0.00,,---,0.00,0.00,VWS V14.01,2013-01-10 15:39:00,
2013-01-10 07:44:00,36.0,31.1,30.01,East,82,2.0,2.0,82,0.00,,---,0.00,0.00,VWS V14.01,2013-01-10 15:44:00,
2013-01-10 07:49:00,35.8,30.8,30.01,East,86,6.0,6.0,82,0.00,,---,0.00,1.45,VWS V14.01,2013-01-10 15:49:00,
2013-01-10 07:54:00,35.8,31.0,30.01,East,84,3.1,3.4,82,0.00,,---,0.00,0.00,VWS V14.01,2013-01-10 15:54:00,
2013-01-10 07:59:00,35.8,31.0,30.01,NE,37,3.1,3.1,82,0.00,,---,0.00,0.00,VWS V14.01,2013-01-10 15:59:00,
2013-01-10 08:04:00,35.6,30.8,30.02,ENE,75,4.3,4.3,83,0.00,,---,0.00,1.83,VWS V14.01,2013-01-10 16:04:00,
2013-01-10 08:09:00,35.6,30.9,30.02,East,86,5.1,5.1,83,0.00,,---,0.00,0.00,VWS V14.01,2013-01-10 16:09:00,
2013-01-10 08:14:00,35.6,30.9,30.02,ENE,69,3.8,3.8,83,0.00,,---,0.00,6.26,VWS V14.01,2013-01-10 16:14:00,
2013-01-10 08:19:00,35.6,30.9,30.03,NE,49,5.4,5.4,83,0.00,,---,0.00,9.62,VWS V14.01,2013-01-10 16:19:00,
2013-01-10 08:24:00,35.6,30.8,30.03,ENE,72,4.9,4.9,82,0.00,,---,0.00,10.30,VWS V14.01,2013-01-10 16:24:00,
2013-01-10 08:29:00,35.6,31.0,30.03,ESE,102,6.3,6.3,83,0.00,,---,0.00,13.35,VWS V14.01,2013-01-10 16:29:00,
2013-01-10 08:34:00,35.6,31.0,30.03,East,84,5.4,5.4,83,0.00,,---,0.00,8.70,VWS V14.01,2013-01-10 16:34:00,
2013-01-10 08:39:00,35.6,31.0,30.03,East,85,2.5,2.5,83,0.00,,---,0.00,10.99,VWS V14.01,2013-01-10 16:39:00,
2013-01-10 08:44:00,35.6,31.0,30.03,NE,46,1.1,3.6,83,0.00,,---,0.00,13.20,VWS V14.01,2013-01-10 16:44:00,
2013-01-10 08:49:00,35.8,31.2,30.04,ENE,77,5.1,5.1,83,0.00,,---,0.00,12.59,VWS V14.01,2013-01-10 16:49:00,
2013-01-10 08:54:00,35.8,31.3,30.04,East,98,4.0,6.0,84,0.00,,---,0.00,19.46,VWS V14.01,2013-01-10 16:54:00,
2013-01-10 08:59:00,35.8,31.3,30.04,ENE,74,3.4,5.8,84,0.00,,---,0.00,41.90,VWS V14.01,2013-01-10 16:59:00,
2013-01-10 09:04:00,35.6,30.9,30.04,East,98,5.4,5.4,83,0.00,,---,0.00,41.36,VWS V14.01,2013-01-10 17:04:00,
2013-01-10 09:09:00,35.6,31.1,30.04,East,82,6.0,6.0,83,0.00,,---,0.00,51.05,VWS V14.01,2013-01-10 17:09:00,
2013-01-10 09:14:00,36.0,31.4,30.04,East,98,6.9,6.9,83,0.00,,---,0.00,35.64,VWS V14.01,2013-01-10 17:14:00,
2013-01-10 09:19:00,36.1,31.6,30.04,ENE,67,4.9,4.9,84,0.00,,---,0.00,46.78,VWS V14.01,2013-01-10 17:19:00,
2013-01-10 09:24:00,36.0,31.4,30.04,East,101,5.4,5.4,83,0.00,,---,0.00,46.25,VWS V14.01,2013-01-10 17:24:00,
2013-01-10 09:29:00,36.1,31.6,30.04,ENE,68,3.4,5.1,83,0.00,,---,0.00,25.64,VWS V14.01,2013-01-10 17:29:00,
2013-01-10 09:34:00,36.1,31.6,30.04,East,97,5.4,5.4,84,0.00,,---,0.00,29.15,VWS V14.01,2013-01-10 17:34:00,
2013-01-10 09:39:00,36.1,31.8,30.04,East,93,2.2,2.2,84,0.00,,---,0.00,18.32,VWS V14.01,2013-01-10 17:39:00,
2013-01-10 09:44:00,35.8,31.4,30.04,ENE,60,6.3,6.3,84,0.00,,---,0.00,37.77,VWS V14.01,2013-01-10 17:44:00,
2013-01-10 09:49:00,35.8,31.5,30.04,East,88,3.6,4.9,84,0.00,,---,0.00,36.71,VWS V14.01,2013-01-10 17:49:00,
2013-01-10 09:54:00,35.8,31.6,30.04,East,87,2.9,2.9,84,0.00,,---,0.00,31.06,VWS V14.01,2013-01-10 17:54:00,
2013-01-10 09:59:00,35.4,31.2,30.04,East,100,8.1,8.1,84,0.00,,---,0.00,45.94,VWS V14.01,2013-01-10 17:59:00,
2013-01-10 10:04:00,35.6,31.5,30.04,East,86,4.9,6.7,85,0.00,,---,0.00,54.33,VWS V14.01,2013-01-10 18:04:00,
2013-01-10 10:09:00,35.6,31.6,30.05,ESE,105,3.4,3.4,85,0.00,,---,0.00,54.18,VWS V14.01,2013-01-10 18:09:00,
2013-01-10 10:14:00,35.8,31.7,30.05,East,84,6.3,6.3,85,0.00,,---,0.00,32.36,VWS V14.01,2013-01-10 18:14:00,
2013-01-10 10:19:00,35.6,31.6,30.05,East,91,3.6,3.6,85,0.00,,---,0.00,30.14,VWS V14.01,2013-01-10 18:19:00,
2013-01-10 10:24:00,35.4,31.3,30.05,ESE,109,6.3,6.3,85,0.00,,---,0.00,66.24,VWS V14.01,2013-01-10 18:24:00,
2013-01-10 10:29:00,35.8,31.7,30.05,East,84,8.1,8.3,85,0.00,,---,0.00,62.04,VWS V14.01,2013-01-10 18:29:00,
2013-01-10 10:34:00,35.6,31.4,30.05,ESE,112,2.9,7.6,84,0.00,,---,0.00,65.02,VWS V14.01,2013-01-10 18:34:00,
2013-01-10 10:39:00,35.4,31.0,30.05,East,100,6.0,6.0,84,0.00,,---,0.00,67.99,VWS V14.01,2013-01-10 18:39:00,
2013-01-10 10:44:00,35.6,31.3,30.05,ESE,105,4.3,4.5,84,0.00,,---,0.00,76.08,VWS V14.01,2013-01-10 18:44:00,
2013-01-10 10:49:00,36.0,31.7,30.04,ESE,105,4.3,4.3,84,0.00,,---,0.00,77.84,VWS V14.01,2013-01-10 18:49:00,
2013-01-10 10:54:00,36.1,31.9,30.04,East,92,3.8,3.8,84,0.00,,---,0.00,44.19,VWS V14.01,2013-01-10 18:54:00,
2013-01-10 10:59:00,36.1,31.8,30.04,ENE,75,3.8,3.8,84,0.00,,---,0.00,66.54,VWS V14.01,2013-01-10 18:59:00,
2013-01-10 11:04:00,36.1,31.8,30.04,ESE,117,3.6,4.3,84,0.00,,---,0.00,57.08,VWS V14.01,2013-01-10 19:04:00,
2013-01-10 11:09:00,36.3,32.0,30.04,ESE,120,4.7,5.8,84,0.00,,---,0.00,71.58,VWS V14.01,2013-01-10 19:09:00,
2013-01-10 11:14:00,36.3,32.0,30.04,ESE,105,6.3,6.3,84,0.00,,---,0.00,83.33,VWS V14.01,2013-01-10 19:14:00,
2013-01-10 11:19:00,36.1,31.8,30.04,East,80,4.3,4.3,84,0.00,,---,0.00,88.52,VWS V14.01,2013-01-10 19:19:00,
2013-01-10 11:24:00,36.3,31.9,30.03,East,90,6.0,6.0,84,0.00,,---,0.00,73.03,VWS V14.01,2013-01-10 19:24:00,
2013-01-10 11:29:00,36.7,32.4,30.03,East,89,3.8,3.8,84,0.00,,---,0.00,92.49,VWS V14.01,2013-01-10 19:29:00,
2013-01-10 11:34:00,36.3,31.7,30.03,East,101,5.1,5.1,83,0.00,,---,0.00,89.67,VWS V14.01,2013-01-10 19:34:00,
2013-01-10 11:39:00,36.5,31.8,30.03,ESE,121,3.4,3.4,83,0.00,,---,0.00,57.46,VWS V14.01,2013-01-10 19:39:00,
2013-01-10 11:44:00,36.3,31.5,30.03,East,95,4.3,7.4,82,0.00,,---,0.00,13.05,VWS V14.01,2013-01-10 19:44:00,
2013-01-10 11:49:00,36.7,32.0,30.03,ESE,105,4.7,5.8,83,0.00,,---,0.00,21.06,VWS V14.01,2013-01-10 19:49:00,
2013-01-10 11:54:00,36.5,31.8,30.03,SE,129,2.9,2.9,83,0.00,,---,0.00,21.98,VWS V14.01,2013-01-10 19:54:00,
2013-01-10 11:59:00,36.5,31.8,30.03,East,98,4.5,6.7,83,0.00,,---,0.00,24.50,VWS V14.01,2013-01-10 19:59:00,
2013-01-10 12:04:00,36.3,31.7,30.03,East,101,4.3,4.3,83,0.00,,---,0.00,27.63,VWS V14.01,2013-01-10 20:04:00,
2013-01-10 12:09:00,36.1,31.5,30.03,East,90,6.0,6.0,83,0.00,,---,0.00,36.32,VWS V14.01,2013-01-10 20:09:00,
2013-01-10 12:14:00,36.1,31.5,30.03,ESE,120,3.6,5.1,83,0.00,,---,0.00,58.07,VWS V14.01,2013-01-10 20:14:00,
2013-01-10 12:19:00,36.5,31.8,30.03,ESE,102,5.6,5.6,83,0.00,,---,0.00,89.51,VWS V14.01,2013-01-10 20:19:00,
2013-01-10 12:24:00,36.7,31.9,30.02,East,86,3.8,3.8,83,0.00,,---,0.00,121.87,VWS V14.01,2013-01-10 20:24:00,
2013-01-10 12:29:00,36.9,31.8,30.02,SE,130,3.6,3.6,82,0.00,,---,0.00,91.19,VWS V14.01,2013-01-10 20:29:00,
2013-01-10 12:34:00,36.9,31.6,30.02,ESE,115,5.4,5.8,81,0.00,,---,0.00,64.33,VWS V14.01,2013-01-10 20:34:00,
2013-01-10 12:39:00,37.0,32.1,30.02,ESE,104,4.3,4.3,82,0.00,,---,0.00,84.17,VWS V14.01,2013-01-10 20:39:00,
2013-01-10 12:44:00,37.4,32.6,30.02,SSE,159,3.8,3.8,83,0.00,,---,0.00,35.79,VWS V14.01,2013-01-10 20:44:00,
2013-01-10 12:49:00,37.4,32.5,30.02,East,98,4.0,4.0,82,0.00,,---,0.00,23.81,VWS V14.01,2013-01-10 20:49:00,
2013-01-10 12:54:00,37.4,32.8,30.02,ESE,109,5.8,5.8,83,0.00,,---,0.00,41.44,VWS V14.01,2013-01-10 20:54:00,
2013-01-10 12:59:00,37.6,33.0,30.02,ESE,102,5.1,5.1,83,0.00,,---,0.00,24.80,VWS V14.01,2013-01-10 20:59:00,
2013-01-10 13:04:00,37.6,33.1,30.02,East,94,4.0,4.0,84,0.00,,---,0.00,21.98,VWS V14.01,2013-01-10 21:04:00,
2013-01-10 13:09:00,37.6,33.2,30.03,SE,132,2.5,2.5,84,0.00,,---,0.00,25.56,VWS V14.01,2013-01-10 21:09:00,
2013-01-10 13:14:00,37.8,33.5,30.03,SSE,155,2.9,2.9,84,0.00,,---,0.00,17.70,VWS V14.01,2013-01-10 21:14:00,
2013-01-10 13:19:00,37.8,33.5,30.03,SE,145,7.2,7.2,84,0.00,,---,0.00,12.90,VWS V14.01,2013-01-10 21:19:00,
2013-01-10 13:24:00,37.6,33.2,30.03,SSE,147,4.3,4.3,84,0.00,,---,0.00,11.68,VWS V14.01,2013-01-10 21:24:00,
2013-01-10 13:29:00,37.6,33.3,30.03,SE,140,7.2,8.5,84,0.00,,---,0.00,16.94,VWS V14.01,2013-01-10 21:29:00,
2013-01-10 13:34:00,37.8,33.7,30.03,SE,125,1.1,1.1,85,0.01,,---,0.01,10.53,VWS V14.01,2013-01-10 21:34:00,
2013-01-10 13:39:00,37.8,33.7,30.03,ESE,121,5.1,6.5,85,0.01,,---,0.01,13.35,VWS V14.01,2013-01-10 21:39:00,
2013-01-10 13:44:00,37.9,33.9,30.03,East,95,5.4,6.0,85,0.01,,---,0.01,15.49,VWS V14.01,2013-01-10 21:44:00,
2013-01-10 13:49:00,37.8,33.7,30.03,SSE,166,4.7,4.7,85,0.01,,---,0.01,31.14,VWS V14.01,2013-01-10 21:49:00,
2013-01-10 13:54:00,37.8,33.6,30.03,SSE,158,8.1,8.1,85,0.01,,---,0.01,27.40,VWS V14.01,2013-01-10 21:54:00,
2013-01-10 13:59:00,37.8,33.5,30.03,South,175,8.1,8.1,84,0.01,,---,0.01,21.14,VWS V14.01,2013-01-10 21:59:00,
2013-01-10 14:04:00,37.8,33.4,30.03,SE,126,6.7,6.7,84,0.01,,---,0.01,33.12,VWS V14.01,2013-01-10 22:04:00,
2013-01-10 14:09:00,37.9,33.5,30.04,SSE,149,5.6,5.6,84,0.01,,---,0.01,39.00,VWS V14.01,2013-01-10 22:09:00,
2013-01-10 14:14:00,37.9,33.5,30.04,SE,135,3.6,3.6,84,0.01,,---,0.01,39.15,VWS V14.01,2013-01-10 22:14:00,
2013-01-10 14:19:00,38.1,33.6,30.04,SE,130,2.2,2.2,84,0.01,,---,0.01,38.92,VWS V14.01,2013-01-10 22:19:00,
2013-01-10 14:24:00,38.1,33.3,30.03,SSE,153,5.4,6.0,83,0.00,,---,0.01,47.47,VWS V14.01,2013-01-10 22:24:00,
2013-01-10 14:29:00,38.1,33.3,30.04,SSE,149,3.4,3.4,83,0.00,,---,0.01,34.11,VWS V14.01,2013-01-10 22:29:00,
2013-01-10 14:34:00,38.1,33.2,30.04,SE,124,2.7,6.5,82,0.00,,---,0.01,31.14,VWS V14.01,2013-01-10 22:34:00,
2013-01-10 14:39:00,38.3,33.1,30.04,SE,136,5.4,7.8,81,0.00,,---,0.01,30.68,VWS V14.01,2013-01-10 22:39:00,
2013-01-10 14:44:00,38.1,32.7,30.04,SE,132,6.0,6.9,81,0.00,,---,0.01,31.06,VWS V14.01,2013-01-10 22:44:00,
2013-01-10 14:49:00,38.1,32.7,30.04,SE,128,4.3,5.6,80,0.00,,---,0.01,34.80,VWS V14.01,2013-01-10 22:49:00,
2013-01-10 14:54:00,38.1,32.7,30.04,SE,126,6.0,6.0,80,0.00,,---,0.01,47.39,VWS V14.01,2013-01-10 22:54:00,
2013-01-10 14:59:00,38.3,32.7,30.04,SE,143,5.4,5.4,80,0.00,,---,0.01,38.00,VWS V14.01,2013-01-10 22:59:00,
2013-01-10 15:04:00,38.1,32.4,30.04,SE,134,4.9,6.3,80,0.00,,---,0.01,35.18,VWS V14.01,2013-01-10 23:04:00,
2013-01-10 15:09:00,38.3,32.7,30.04,ESE,119,4.9,4.9,80,0.00,,---,0.01,24.88,VWS V14.01,2013-01-10 23:09:00,
2013-01-10 15:14:00,38.3,32.6,30.04,SSE,148,4.5,4.5,80,0.00,,---,0.01,25.87,VWS V14.01,2013-01-10 23:14:00,
2013-01-10 15:19:00,38.5,32.7,30.04,SE,129,4.0,5.1,80,0.00,,---,0.01,26.56,VWS V14.01,2013-01-10 23:19:00,
2013-01-10 15:24:00,38.5,32.4,30.04,SSE,160,5.8,5.8,79,0.00,,---,0.01,20.22,VWS V14.01,2013-01-10 23:24:00,
2013-01-10 15:29:00,38.5,32.6,30.04,South,177,4.0,4.0,79,0.00,,---,0.01,25.95,VWS V14.01,2013-01-10 23:29:00,
2013-01-10 15:34:00,38.7,32.8,30.04,SE,137,5.1,5.1,79,0.00,,---,0.01,20.83,VWS V14.01,2013-01-10 23:34:00,
2013-01-10 15:39:00,38.7,32.7,30.04,SSE,163,2.0,6.3,79,0.00,,---,0.01,33.58,VWS V14.01,2013-01-10 23:39:00,
2013-01-10 15:44:00,38.7,32.8,30.04,ESE,107,3.4,3.4,79,0.00,,---,0.01,24.42,VWS V14.01,2013-01-10 23:44:00,
2013-01-10 15:49:00,38.7,32.6,30.04,SE,146,3.6,3.6,79,0.00,,---,0.01,2.59,VWS V14.01,2013-01-10 23:49:00,
2013-01-10 15:54:00,38.5,32.5,30.04,ESE,122,5.1,5.1,79,0.00,,---,0.01,8.85,VWS V14.01,2013-01-10 23:54:00,
2013-01-10 15:59:00,38.5,32.5,30.04,SE,138,3.8,3.8,79,0.00,,---,0.01,11.75,VWS V14.01,2013-01-10 23:59:00,
2013-01-10 16:04:00,38.7,32.7,30.05,SE,140,2.5,2.5,79,0.00,,---,0.01,11.07,VWS V14.01,2013-01-11 00:04:00,
2013-01-10 16:09:00,38.7,32.6,30.04,SSE,149,4.9,5.6,79,0.00,,---,0.01,10.84,VWS V14.01,2013-01-11 00:09:00,
2013-01-10 16:14:00,38.7,32.6,30.04,SSE,151,2.9,3.1,78,0.00,,---,0.01,9.77,VWS V14.01,2013-01-11 00:14:00,
2013-01-10 16:19:00,38.7,32.4,30.05,SE,137,6.3,6.3,78,0.00,,---,0.01,5.65,VWS V14.01,2013-01-11 00:19:00,
2013-01-10 16:24:00,38.7,32.4,30.05,ESE,108,4.9,4.9,78,0.00,,---,0.01,1.98,VWS V14.01,2013-01-11 00:24:00,
2013-01-10 16:29:00,38.7,32.3,30.05,SE,137,3.4,4.3,78,0.00,,---,0.01,4.27,VWS V14.01,2013-01-11 00:29:00,
2013-01-10 16:34:00,38.7,32.4,30.05,SE,127,4.9,5.1,78,0.00,,---,0.01,5.42,VWS V14.01,2013-01-11 00:34:00,
2013-01-10 16:39:00,38.8,32.6,30.05,ESE,106,2.7,2.9,78,0.00,,---,0.01,0.00,VWS V14.01,2013-01-11 00:39:00,
2013-01-10 16:44:00,38.7,32.2,30.05,SSE,147,2.0,2.5,77,0.00,,---,0.01,0.00,VWS V14.01,2013-01-11 00:44:00,
2013-01-10 16:49:00,38.8,32.5,30.05,ENE,77,0.2,0.7,78,0.00,,---,0.01,1.30,VWS V14.01,2013-01-11 00:49:00,
2013-01-10 16:54:00,38.7,32.2,30.05,NW,309,1.1,1.1,77,0.00,,---,0.01,0.00,VWS V14.01,2013-01-11 00:54:00,
2013-01-10 16:59:00,38.8,32.1,30.05,NE,47,0.9,1.1,76,0.00,,---,0.01,0.00,VWS V14.01,2013-01-11 00:59:00,
2013-01-10 17:04:00,38.7,31.8,30.05,SSW,206,0.9,1.3,76,0.00,,---,0.01,0.00,VWS V14.01,2013-01-11 01:04:00,
2013-01-10 17:09:00,38.7,31.4,30.05,West,273,2.0,3.4,75,0.00,,---,0.01,0.00,VWS V14.01,2013-01-11 01:09:00,
2013-01-10 17:14:00,38.7,31.2,30.05,WNW,284,0.7,2.0,74,0.00,,---,0.01,0.00,VWS V14.01,2013-01-11 01:14:00,
2013-01-10 17:19:00,38.8,31.5,30.05,West,270,1.1,1.1,75,0.00,,---,0.01,3.36,VWS V14.01,2013-01-11 01:19:00,
2013-01-10 17:24:00,38.7,31.3,30.05,WSW,252,1.1,1.1,74,0.00,,---,0.01,0.00,VWS V14.01,2013-01-11 01:24:00,
2013-01-10 17:29:00,38.7,31.2,30.05,South,190,1.6,1.6,74,0.00,,---,0.01,0.00,VWS V14.01,2013-01-11 01:29:00,
2013-01-10 17:34:00,38.7,31.2,30.05,West,280,1.1,1.1,74,0.00,,---,0.01,0.99,VWS V14.01,2013-01-11 01:34:00,
2013-01-10 17:39:00,38.7,31.1,30.05,WSW,250,0.7,1.6,74,0.00,,---,0.01,0.00,VWS V14.01,2013-01-11 01:39:00,
2013-01-10 17:44:00,38.8,31.3,30.05,SW,218,1.6,1.6,74,0.00,,---,0.01,0.00,VWS V14.01,2013-01-11 01:44:00,
2013-01-10 17:49:00,38.8,31.3,30.05,WNW,299,1.3,1.3,74,0.00,,---,0.01,0.00,VWS V14.01,2013-01-11 01:49:00,
2013-01-10 17:54:00,38.8,31.3,30.05,West,268,1.6,2.0,74,0.00,,---,0.01,0.00,VWS V14.01,2013-01-11 01:54:00,
2013-01-10 17:59:00,38.8,31.4,30.05,WNW,289,1.8,1.8,74,0.00,,---,0.01,2.37,VWS V14.01,2013-01-11 01:59:00,
2013-01-10 18:04:00,38.7,31.4,30.05,West,264,2.2,2.2,75,0.00,,---,0.01,0.00,VWS V14.01,2013-01-11 02:04:00,
2013-01-10 18:09:00,38.7,31.5,30.05,WNW,282,1.1,1.3,75,0.00,,---,0.01,0.46,VWS V14.01,2013-01-11 02:09:00,
2013-01-10 18:14:00,38.5,31.5,30.05,WNW,302,2.0,2.0,76,0.00,,---,0.01,1.37,VWS V14.01,2013-01-11 02:14:00,
2013-01-10 18:19:00,38.5,31.5,30.05,NW,325,1.3,1.3,76,0.00,,---,0.01,1.37,VWS V14.01,2013-01-11 02:19:00,
2013-01-10 18:24:00,38.3,31.1,30.05,WSW,242,2.5,2.5,75,0.00,,---,0.01,0.00,VWS V14.01,2013-01-11 02:24:00,
2013-01-10 18:29:00,38.1,30.1,30.05,WNW,285,1.6,1.8,72,0.00,,---,0.01,2.37,VWS V14.01,2013-01-11 02:29:00,
2013-01-10 18:34:00,37.9,29.4,30.05,NNW,336,0.7,1.3,71,0.00,,---,0.01,0.00,VWS V14.01,2013-01-11 02:34:00,
2013-01-10 18:39:00,38.1,29.1,30.05,West,266,0.9,1.3,70,0.00,,---,0.01,0.00,VWS V14.01,2013-01-11 02:39:00,
2013-01-10 18:44:00,37.9,28.9,30.05,West,273,1.3,1.8,70,0.00,,---,0.01,0.23,VWS V14.01,2013-01-11 02:44:00,
2013-01-10 18:49:00,37.9,28.9,30.05,NW,323,2.0,2.0,70,0.00,,---,0.01,4.66,VWS V14.01,2013-01-11 02:49:00,
2013-01-10 18:54:00,37.8,28.8,30.05,WNW,299,1.6,1.8,70,0.00,,---,0.01,3.36,VWS V14.01,2013-01-11 02:54:00,
2013-01-10 18:59:00,37.8,28.6,30.05,SW,233,0.9,0.9,69,0.00,,---,0.01,0.00,VWS V14.01,2013-01-11 02:59:00,
2013-01-10 19:04:00,37.6,28.2,30.05,WNW,288,1.1,1.1,69,0.00,,---,0.01,3.89,VWS V14.01,2013-01-11 03:04:00,
2013-01-10 19:09:00,37.4,27.6,30.05,West,268,2.2,2.2,68,0.00,,---,0.01,0.00,VWS V14.01,2013-01-11 03:09:00,
2013-01-10 19:14:00,37.4,27.1,30.05,ESE,123,0.4,0.4,66,0.00,,---,0.01,0.00,VWS V14.01,2013-01-11 03:14:00,
2013-01-10 19:19:00,37.6,27.6,30.05,SSE,147,2.0,2.5,67,0.00,,---,0.01,0.00,VWS V14.01,2013-01-11 03:19:00,
2013-01-10 19:24:00,37.6,27.4,30.05,SSW,196,1.8,1.8,66,0.00,,---,0.01,0.00,VWS V14.01,2013-01-11 03:24:00,
2013-01-10 19:29:00,37.8,27.2,30.05,SSW,210,2.9,2.9,66,0.00,,---,0.01,0.00,VWS V14.01,2013-01-11 03:29:00,
2013-01-10 19:34:00,37.9,28.2,30.05,SSW,194,2.9,2.9,68,0.00,,---,0.01,0.00,VWS V14.01,2013-01-11 03:34:00,
2013-01-10 19:39:00,37.9,29.0,30.05,South,188,2.2,2.2,70,0.00,,---,0.01,3.21,VWS V14.01,2013-01-11 03:39:00,
2013-01-10 19:44:00,37.9,29.5,30.05,South,178,4.0,4.0,71,0.00,,---,0.01,0.00,VWS V14.01,2013-01-11 03:44:00,
2013-01-10 19:49:00,37.8,29.6,30.05,South,170,2.0,2.0,72,0.00,,---,0.01,0.00,VWS V14.01,2013-01-11 03:49:00,
2013-01-10 19:54:00,37.8,29.7,30.05,SSW,211,1.6,1.6,72,0.00,,---,0.01,0.00,VWS V14.01,2013-01-11 03:54:00,
2013-01-10 19:59:00,37.4,29.6,30.05,South,172,1.8,1.8,73,0.00,,---,0.01,1.22,VWS V14.01,2013-01-11 03:59:00,
2013-01-10 20:04:00,37.4,30.0,30.05,SSE,148,2.0,2.7,74,0.00,,---,0.01,1.30,VWS V14.01,2013-01-11 04:04:00,
2013-01-10 20:09:00,37.4,30.3,30.05,South,189,1.8,1.8,75,0.00,,---,0.01,0.00,VWS V14.01,2013-01-11 04:09:00,
2013-01-10 20:14:00,37.2,30.4,30.05,SSE,150,1.8,1.8,76,0.00,,---,0.01,0.00,VWS V14.01,2013-01-11 04:14:00,
2013-01-10 20:19:00,37.2,30.5,30.05,SSE,149,2.0,2.0,76,0.00,,---,0.01,0.00,VWS V14.01,2013-01-11 04:19:00,
2013-01-10 20:24:00,37.2,30.8,30.05,SSE,164,2.5,2.5,77,0.00,,---,0.01,3.74,VWS V14.01,2013-01-11 04:24:00,
2013-01-10 20:29:00,37.0,30.7,30.05,SSW,192,2.9,2.9,78,0.00,,---,0.01,1.76,VWS V14.01,2013-01-11 04:29:00,
2013-01-10 20:34:00,37.0,30.8,30.05,SE,139,1.6,1.6,78,0.00,,---,0.01,0.00,VWS V14.01,2013-01-11 04:34:00,
2013-01-10 20:40:00,37.0,30.9,30.05,South,183,2.0,2.0,78,0.00,,---,0.01,0.00,VWS V14.01,2013-01-11 04:40:00,
2013-01-10 20:45:00,37.0,31.0,30.05,SW,214,1.8,2.2,78,0.00,,---,0.01,0.46,VWS V14.01,2013-01-11 04:45:00,
2013-01-10 20:50:00,37.2,31.1,30.06,SSW,207,2.2,2.9,78,0.00,,---,0.01,0.00,VWS V14.01,2013-01-11 04:50:00,
2013-01-10 20:55:00,37.2,30.9,30.06,South,191,1.1,1.6,78,0.00,,---,0.01,0.23,VWS V14.01,2013-01-11 04:55:00,
2013-01-10 21:00:00,37.2,30.8,30.06,SSW,199,1.6,2.2,77,0.00,,---,0.01,3.36,VWS V14.01,2013-01-11 05:00:00,
2013-01-10 21:01:00,37.2,30.8,30.06,SSW,202,1.6,1.6,77,0.00,,---,0.01,0.00,VWS V14.01,2013-01-11 05:01:00,
2013-01-10 21:02:00,37.2,30.8,30.06,South,176,1.3,1.3,77,0.00,,---,0.01,0.00,VWS V14.01,2013-01-11 05:02:00,
2013-01-10 21:03:00,37.0,30.6,30.06,SSW,205,1.1,1.6,77,0.00,,---,0.01,0.00,VWS V14.01,2013-01-11 05:03:00,
2013-01-10 21:08:00,36.9,30.0,30.06,South,169,2.0,2.0,76,0.00,,---,0.01,0.38,VWS V14.01,2013-01-11 05:08:00,
2013-01-10 21:13:00,36.7,29.5,30.06,SW,233,1.1,1.1,75,0.00,,---,0.01,0.00,VWS V14.01,2013-01-11 05:13:00,
2013-01-10 21:18:00,36.5,28.9,30.06,WSW,250,0.9,1.3,74,0.00,,---,0.01,0.38,VWS V14.01,2013-01-11 05:18:00,
2013-01-10 21:23:00,36.5,28.8,30.06,South,177,1.3,1.3,73,0.00,,---,0.01,0.00,VWS V14.01,2013-01-11 05:23:00,
2013-01-10 21:28:00,36.7,28.4,30.06,SSW,204,1.1,1.1,72,0.00,,---,0.01,0.00,VWS V14.01,2013-01-11 05:28:00,
2013-01-10 21:33:00,36.5,27.6,30.06,WNW,293,1.3,2.0,70,0.00,,---,0.01,0.00,VWS V14.01,2013-01-11 05:33:00,
2013-01-10 21:38:00,36.5,26.9,30.06,WSW,254,1.8,1.8,68,0.00,,---,0.01,0.00,VWS V14.01,2013-01-11 05:38:00,
2013-01-10 21:43:00,36.3,25.5,30.06,South,178,1.3,3.1,64,0.00,,---,0.01,0.00,VWS V14.01,2013-01-11 05:43:00,
2013-01-10 21:48:00,36.3,24.8,30.06,SW,216,1.3,1.3,63,0.00,,---,0.01,0.92,VWS V14.01,2013-01-11 05:48:00,
2013-01-10 21:53:00,36.3,24.3,30.06,SW,214,1.8,1.8,61,0.00,,---,0.01,0.99,VWS V14.01,2013-01-11 05:53:00,
2013-01-10 21:58:00,36.3,24.0,30.06,SW,226,2.7,2.9,60,0.00,,---,0.01,1.60,VWS V14.01,2013-01-11 05:58:00,
2013-01-10 22:03:00,36.3,24.1,30.07,SW,227,2.9,2.9,61,0.00,,---,0.01,5.04,VWS V14.01,2013-01-11 06:03:00,
2013-01-10 22:08:00,36.3,23.9,30.07,WSW,241,2.2,2.2,60,0.00,,---,0.01,0.00,VWS V14.01,2013-01-11 06:08:00,
2013-01-10 22:13:00,36.5,23.9,30.07,SW,231,1.1,2.0,60,0.00,,---,0.01,3.36,VWS V14.01,2013-01-11 06:13:00,
2013-01-10 22:18:00,36.7,23.8,30.07,SSW,199,2.9,2.9,59,0.00,,---,0.01,0.00,VWS V14.01,2013-01-11 06:18:00,
2013-01-10 22:23:00,36.7,24.2,30.07,SSW,204,2.7,2.7,60,0.00,,---,0.01,0.00,VWS V14.01,2013-01-11 06:23:00,
2013-01-10 22:28:00,36.5,23.8,30.07,WSW,239,1.3,1.8,60,0.00,,---,0.01,0.00,VWS V14.01,2013-01-11 06:28:00,
2013-01-10 22:33:00,36.5,23.7,30.07,West,277,1.6,1.6,59,0.00,,---,0.01,0.00,VWS V14.01,2013-01-11 06:33:00,
2013-01-10 22:38:00,36.3,23.3,30.07,South,186,0.7,0.7,59,0.00,,---,0.01,0.00,VWS V14.01,2013-01-11 06:38:00,
2013-01-10 22:43:00,36.3,22.9,30.07,SSW,212,1.3,1.6,58,0.00,,---,0.01,0.53,VWS V14.01,2013-01-11 06:43:00,
2013-01-10 22:48:00,36.5,22.9,30.07,SW,231,2.2,2.2,58,0.00,,---,0.01,0.00,VWS V14.01,2013-01-11 06:48:00,
2013-01-10 22:53:00,36.5,23.3,30.07,SE,131,2.0,2.0,58,0.00,,---,0.01,1.53,VWS V14.01,2013-01-11 06:53:00,
2013-01-10 22:58:00,36.5,23.5,30.07,SSW,207,2.5,2.5,59,0.00,,---,0.01,0.00,VWS V14.01,2013-01-11 06:58:00,
2013-01-10 23:03:00,36.9,24.2,30.07,South,176,3.6,3.8,60,0.00,,---,0.01,4.66,VWS V14.01,2013-01-11 07:03:00,
2013-01-10 23:08:00,36.9,24.0,30.08,SSE,168,3.8,3.8,59,0.00,,---,0.01,0.00,VWS V14.01,2013-01-11 07:08:00,
2013-01-10 23:13:00,36.9,24.6,30.08,SSW,210,2.9,2.9,61,0.00,,---,0.01,1.60,VWS V14.01,2013-01-11 07:13:00,
2013-01-10 23:18:00,36.9,24.8,30.08,SSW,211,1.8,1.8,61,0.00,,---,0.01,0.00,VWS V14.01,2013-01-11 07:18:00,
2013-01-10 23:23:00,37.0,25.6,30.08,SE,129,1.1,1.3,63,0.00,,---,0.01,0.00,VWS V14.01,2013-01-11 07:23:00,
2013-01-10 23:28:00,36.7,26.1,30.08,SSE,149,2.7,2.7,65,0.00,,---,0.01,0.61,VWS V14.01,2013-01-11 07:28:00,
2013-01-10 23:33:00,36.7,27.2,30.08,South,173,0.9,2.2,68,0.00,,---,0.01,0.00,VWS V14.01,2013-01-11 07:33:00,
2013-01-10 23:38:00,36.3,28.3,30.08,NE,43,1.6,1.6,72,0.00,,---,0.01,0.00,VWS V14.01,2013-01-11 07:38:00,
2013-01-10 23:43:00,36.0,29.0,30.08,NW,323,1.3,1.3,76,0.00,,---,0.01,0.38,VWS V14.01,2013-01-11 07:43:00,
2013-01-10 23:48:00,36.0,29.2,30.08,ENE,62,1.3,1.3,76,0.00,,---,0.01,2.75,VWS V14.01,2013-01-11 07:48:00,
2013-01-10 23:53:00,35.6,29.2,30.08,NW,310,0.9,1.6,77,0.00,,---,0.01,0.00,VWS V14.01,2013-01-11 07:53:00,
2013-01-10 23:58:00,35.6,29.5,30.08,WSW,248,1.3,1.3,78,0.00,,---,0.01,0.00,VWS V14.01,2013-01-11 07:58:00,